sensor_id;sensor_type;location;lat;lon;timestamp;P1;durP1;ratioP1;P2;durP2;ratioP2
17059;SDS011;8646;49.716;9.266;2022-07-03T00:01:16;1.47;;;1.20;;
17059;SDS011;8646;49.716;9.266;2022-07-03T00:04:19;1.90;;;1.20;;
17059;SDS011;8646;49.716;9.266;2022-07-03T00:07:25;3.67;;;1.17;;
17059;SDS011;8646;49.716;9.266;2022-07-03T00:10:29;4.20;;;1.10;;
17059;SDS011;8646;49.716;9.266;2022-07-03T00:13:33;3.97;;;1.30;;
17059;SDS011;8646;49.716;9.266;2022-07-03T00:16:36;2.10;;;1.13;;
17059;SDS011;8646;49.716;9.266;2022-07-03T00:19:39;2.30;;;1.03;;
17059;SDS011;8646;49.716;9.266;2022-07-03T00:22:43;3.23;;;2.00;;
17059;SDS011;8646;49.716;9.266;2022-07-03T00:25:46;3.37;;;1.37;;
17059;SDS011;8646;49.716;9.266;2022-07-03T00:28:53;5.20;;;1.90;;
17059;SDS011;8646;49.716;9.266;2022-07-03T00:32:00;2.80;;;1.77;;
17059;SDS011;8646;49.716;9.266;2022-07-03T00:35:05;2.30;;;1.40;;
17059;SDS011;8646;49.716;9.266;2022-07-03T00:38:09;3.40;;;1.50;;
17059;SDS011;8646;49.716;9.266;2022-07-03T00:41:23;1.37;;;1.10;;
17059;SDS011;8646;49.716;9.266;2022-07-03T00:44:30;3.43;;;1.27;;
17059;SDS011;8646;49.716;9.266;2022-07-03T00:47:36;1.70;;;1.13;;
17059;SDS011;8646;49.716;9.266;2022-07-03T00:50:39;3.70;;;1.30;;
17059;SDS011;8646;49.716;9.266;2022-07-03T00:53:48;6.63;;;1.33;;
17059;SDS011;8646;49.716;9.266;2022-07-03T00:56:54;2.63;;;1.30;;
17059;SDS011;8646;49.716;9.266;2022-07-03T01:00:03;2.57;;;1.30;;
17059;SDS011;8646;49.716;9.266;2022-07-03T01:03:09;2.37;;;1.23;;
17059;SDS011;8646;49.716;9.266;2022-07-03T01:06:17;1.77;;;1.37;;
17059;SDS011;8646;49.716;9.266;2022-07-03T01:09:23;2.13;;;1.23;;
17059;SDS011;8646;49.716;9.266;2022-07-03T01:12:36;2.53;;;1.40;;
17059;SDS011;8646;49.716;9.266;2022-07-03T01:15:50;2.77;;;1.20;;
17059;SDS011;8646;49.716;9.266;2022-07-03T01:19:04;1.30;;;1.20;;
17059;SDS011;8646;49.716;9.266;2022-07-03T01:22:28;2.83;;;1.17;;
17059;SDS011;8646;49.716;9.266;2022-07-03T01:25:40;1.87;;;1.40;;
17059;SDS011;8646;49.716;9.266;2022-07-03T01:28:45;4.07;;;1.40;;
17059;SDS011;8646;49.716;9.266;2022-07-03T01:31:48;4.10;;;1.20;;
17059;SDS011;8646;49.716;9.266;2022-07-03T01:34:56;3.53;;;1.50;;
17059;SDS011;8646;49.716;9.266;2022-07-03T01:38:05;2.57;;;1.50;;
17059;SDS011;8646;49.716;9.266;2022-07-03T01:41:12;5.17;;;1.60;;
17059;SDS011;8646;49.716;9.266;2022-07-03T01:44:15;3.20;;;1.70;;
17059;SDS011;8646;49.716;9.266;2022-07-03T01:47:19;6.53;;;1.73;;
17059;SDS011;8646;49.716;9.266;2022-07-03T01:50:29;4.40;;;1.63;;
17059;SDS011;8646;49.716;9.266;2022-07-03T01:53:34;1.97;;;1.57;;
17059;SDS011;8646;49.716;9.266;2022-07-03T01:56:40;3.23;;;1.80;;
17059;SDS011;8646;49.716;9.266;2022-07-03T01:59:43;5.17;;;1.50;;
17059;SDS011;8646;49.716;9.266;2022-07-03T02:02:50;3.83;;;1.70;;
17059;SDS011;8646;49.716;9.266;2022-07-03T02:06:02;4.17;;;1.80;;
17059;SDS011;8646;49.716;9.266;2022-07-03T02:09:11;1.50;;;1.30;;
17059;SDS011;8646;49.716;9.266;2022-07-03T02:12:34;3.40;;;1.80;;
17059;SDS011;8646;49.716;9.266;2022-07-03T02:15:42;2.63;;;1.80;;
17059;SDS011;8646;49.716;9.266;2022-07-03T02:18:48;4.87;;;1.53;;
17059;SDS011;8646;49.716;9.266;2022-07-03T02:21:59;1.87;;;1.57;;
17059;SDS011;8646;49.716;9.266;2022-07-03T02:25:05;17.27;;;1.80;;
17059;SDS011;8646;49.716;9.266;2022-07-03T02:28:13;2.67;;;1.73;;
17059;SDS011;8646;49.716;9.266;2022-07-03T02:31:24;8.03;;;1.80;;
17059;SDS011;8646;49.716;9.266;2022-07-03T02:34:30;3.13;;;1.90;;
17059;SDS011;8646;49.716;9.266;2022-07-03T02:37:37;2.77;;;1.60;;
17059;SDS011;8646;49.716;9.266;2022-07-03T02:40:48;3.70;;;1.60;;
17059;SDS011;8646;49.716;9.266;2022-07-03T02:44:02;6.87;;;1.60;;
17059;SDS011;8646;49.716;9.266;2022-07-03T02:47:11;2.30;;;1.60;;
17059;SDS011;8646;49.716;9.266;2022-07-03T02:50:23;6.23;;;2.00;;
17059;SDS011;8646;49.716;9.266;2022-07-03T02:53:30;3.30;;;1.90;;
17059;SDS011;8646;49.716;9.266;2022-07-03T02:56:41;2.37;;;1.60;;
17059;SDS011;8646;49.716;9.266;2022-07-03T02:59:55;2.70;;;1.80;;
17059;SDS011;8646;49.716;9.266;2022-07-03T03:03:02;3.67;;;1.87;;
17059;SDS011;8646;49.716;9.266;2022-07-03T03:06:09;6.00;;;1.83;;
17059;SDS011;8646;49.716;9.266;2022-07-03T03:09:19;3.83;;;1.70;;
17059;SDS011;8646;49.716;9.266;2022-07-03T03:12:28;1.70;;;1.60;;
17059;SDS011;8646;49.716;9.266;2022-07-03T03:15:36;2.13;;;1.57;;
17059;SDS011;8646;49.716;9.266;2022-07-03T03:18:40;5.40;;;1.53;;
17059;SDS011;8646;49.716;9.266;2022-07-03T03:21:45;2.77;;;1.60;;
17059;SDS011;8646;49.716;9.266;2022-07-03T03:25:00;3.20;;;1.40;;
17059;SDS011;8646;49.716;9.266;2022-07-03T03:28:04;1.70;;;1.40;;
17059;SDS011;8646;49.716;9.266;2022-07-03T03:31:12;2.20;;;1.43;;
17059;SDS011;8646;49.716;9.266;2022-07-03T03:34:15;3.40;;;1.60;;
17059;SDS011;8646;49.716;9.266;2022-07-03T03:37:19;2.77;;;1.60;;
17059;SDS011;8646;49.716;9.266;2022-07-03T03:40:22;4.60;;;1.50;;
17059;SDS011;8646;49.716;9.266;2022-07-03T03:43:26;2.33;;;1.70;;
17059;SDS011;8646;49.716;9.266;2022-07-03T03:46:30;3.37;;;2.40;;
17059;SDS011;8646;49.716;9.266;2022-07-03T03:49:33;2.13;;;1.60;;
17059;SDS011;8646;49.716;9.266;2022-07-03T03:52:36;7.50;;;1.40;;
17059;SDS011;8646;49.716;9.266;2022-07-03T03:55:51;2.23;;;1.50;;
17059;SDS011;8646;49.716;9.266;2022-07-03T03:58:55;6.17;;;1.60;;
17059;SDS011;8646;49.716;9.266;2022-07-03T04:01:59;4.47;;;1.90;;
17059;SDS011;8646;49.716;9.266;2022-07-03T04:05:02;4.03;;;1.93;;
17059;SDS011;8646;49.716;9.266;2022-07-03T04:08:06;2.03;;;1.60;;
17059;SDS011;8646;49.716;9.266;2022-07-03T04:11:09;2.50;;;1.63;;
17059;SDS011;8646;49.716;9.266;2022-07-03T04:14:12;3.13;;;1.90;;
17059;SDS011;8646;49.716;9.266;2022-07-03T04:17:16;2.60;;;1.77;;
17059;SDS011;8646;49.716;9.266;2022-07-03T04:20:19;2.53;;;1.60;;
17059;SDS011;8646;49.716;9.266;2022-07-03T04:23:22;2.90;;;1.63;;
17059;SDS011;8646;49.716;9.266;2022-07-03T04:26:25;3.97;;;1.67;;
17059;SDS011;8646;49.716;9.266;2022-07-03T04:29:28;2.53;;;1.80;;
17059;SDS011;8646;49.716;9.266;2022-07-03T04:32:32;2.67;;;1.60;;
17059;SDS011;8646;49.716;9.266;2022-07-03T04:35:36;3.43;;;1.70;;
17059;SDS011;8646;49.716;9.266;2022-07-03T04:38:39;2.77;;;1.60;;
17059;SDS011;8646;49.716;9.266;2022-07-03T04:41:44;3.07;;;1.70;;
17059;SDS011;8646;49.716;9.266;2022-07-03T04:44:47;3.03;;;2.00;;
17059;SDS011;8646;49.716;9.266;2022-07-03T04:47:51;3.60;;;1.90;;
17059;SDS011;8646;49.716;9.266;2022-07-03T04:50:54;2.00;;;1.70;;
17059;SDS011;8646;49.716;9.266;2022-07-03T04:53:56;3.93;;;1.80;;
17059;SDS011;8646;49.716;9.266;2022-07-03T04:56:59;2.53;;;1.50;;
17059;SDS011;8646;49.716;9.266;2022-07-03T05:00:03;4.13;;;1.63;;
17059;SDS011;8646;49.716;9.266;2022-07-03T05:03:10;2.23;;;1.53;;
17059;SDS011;8646;49.716;9.266;2022-07-03T05:06:13;2.87;;;1.67;;
17059;SDS011;8646;49.716;9.266;2022-07-03T05:09:21;2.20;;;1.40;;
17059;SDS011;8646;49.716;9.266;2022-07-03T05:12:23;2.60;;;1.50;;
17059;SDS011;8646;49.716;9.266;2022-07-03T05:15:26;1.60;;;1.50;;
17059;SDS011;8646;49.716;9.266;2022-07-03T05:18:31;2.13;;;1.40;;
17059;SDS011;8646;49.716;9.266;2022-07-03T05:21:33;2.47;;;1.20;;
17059;SDS011;8646;49.716;9.266;2022-07-03T05:24:36;3.63;;;1.47;;
17059;SDS011;8646;49.716;9.266;2022-07-03T05:27:39;5.43;;;1.40;;
17059;SDS011;8646;49.716;9.266;2022-07-03T05:30:42;2.17;;;1.10;;
17059;SDS011;8646;49.716;9.266;2022-07-03T05:33:46;1.83;;;1.43;;
17059;SDS011;8646;49.716;9.266;2022-07-03T05:36:49;1.40;;;1.20;;
17059;SDS011;8646;49.716;9.266;2022-07-03T05:39:52;1.97;;;1.27;;
17059;SDS011;8646;49.716;9.266;2022-07-03T05:42:55;2.10;;;1.60;;
17059;SDS011;8646;49.716;9.266;2022-07-03T05:45:58;2.17;;;1.50;;
17059;SDS011;8646;49.716;9.266;2022-07-03T05:49:02;3.87;;;1.60;;
17059;SDS011;8646;49.716;9.266;2022-07-03T05:52:07;2.43;;;1.20;;
17059;SDS011;8646;49.716;9.266;2022-07-03T05:55:10;1.60;;;1.30;;
17059;SDS011;8646;49.716;9.266;2022-07-03T05:58:13;4.37;;;1.50;;
17059;SDS011;8646;49.716;9.266;2022-07-03T06:01:16;1.87;;;1.50;;
17059;SDS011;8646;49.716;9.266;2022-07-03T06:04:20;2.00;;;1.50;;
17059;SDS011;8646;49.716;9.266;2022-07-03T06:07:23;1.97;;;1.30;;
17059;SDS011;8646;49.716;9.266;2022-07-03T06:10:26;5.03;;;1.43;;
17059;SDS011;8646;49.716;9.266;2022-07-03T06:13:30;7.17;;;1.40;;
17059;SDS011;8646;49.716;9.266;2022-07-03T06:16:33;2.63;;;1.40;;
17059;SDS011;8646;49.716;9.266;2022-07-03T06:19:37;2.40;;;1.50;;
17059;SDS011;8646;49.716;9.266;2022-07-03T06:22:40;2.60;;;1.50;;
17059;SDS011;8646;49.716;9.266;2022-07-03T06:25:43;2.67;;;1.40;;
17059;SDS011;8646;49.716;9.266;2022-07-03T06:28:46;2.00;;;1.43;;
17059;SDS011;8646;49.716;9.266;2022-07-03T06:31:49;1.53;;;1.43;;
17059;SDS011;8646;49.716;9.266;2022-07-03T06:34:53;4.23;;;1.20;;
17059;SDS011;8646;49.716;9.266;2022-07-03T06:38:00;2.13;;;1.50;;
17059;SDS011;8646;49.716;9.266;2022-07-03T06:41:03;2.80;;;1.50;;
17059;SDS011;8646;49.716;9.266;2022-07-03T06:44:06;4.13;;;1.20;;
17059;SDS011;8646;49.716;9.266;2022-07-03T06:47:09;1.93;;;1.30;;
17059;SDS011;8646;49.716;9.266;2022-07-03T06:50:13;3.73;;;1.47;;
17059;SDS011;8646;49.716;9.266;2022-07-03T06:53:16;3.17;;;1.37;;
17059;SDS011;8646;49.716;9.266;2022-07-03T06:56:19;1.60;;;1.20;;
17059;SDS011;8646;49.716;9.266;2022-07-03T06:59:26;2.57;;;1.47;;
17059;SDS011;8646;49.716;9.266;2022-07-03T07:02:29;2.87;;;1.40;;
17059;SDS011;8646;49.716;9.266;2022-07-03T07:05:33;1.80;;;1.13;;
17059;SDS011;8646;49.716;9.266;2022-07-03T07:08:36;2.40;;;1.30;;
17059;SDS011;8646;49.716;9.266;2022-07-03T07:11:39;1.40;;;1.10;;
17059;SDS011;8646;49.716;9.266;2022-07-03T07:14:42;3.40;;;1.53;;
17059;SDS011;8646;49.716;9.266;2022-07-03T07:17:46;1.50;;;1.00;;
17059;SDS011;8646;49.716;9.266;2022-07-03T07:20:50;1.53;;;1.20;;
17059;SDS011;8646;49.716;9.266;2022-07-03T07:23:55;1.60;;;1.20;;
17059;SDS011;8646;49.716;9.266;2022-07-03T07:26:58;2.03;;;1.10;;
17059;SDS011;8646;49.716;9.266;2022-07-03T07:30:02;2.60;;;1.27;;
17059;SDS011;8646;49.716;9.266;2022-07-03T07:33:05;3.80;;;1.77;;
17059;SDS011;8646;49.716;9.266;2022-07-03T07:36:10;1.97;;;1.20;;
17059;SDS011;8646;49.716;9.266;2022-07-03T07:39:13;1.17;;;1.00;;
17059;SDS011;8646;49.716;9.266;2022-07-03T07:42:16;3.43;;;1.20;;
17059;SDS011;8646;49.716;9.266;2022-07-03T07:45:20;2.63;;;1.40;;
17059;SDS011;8646;49.716;9.266;2022-07-03T07:48:23;2.70;;;1.40;;
17059;SDS011;8646;49.716;9.266;2022-07-03T07:51:28;1.33;;;1.10;;
17059;SDS011;8646;49.716;9.266;2022-07-03T07:54:31;4.83;;;1.20;;
17059;SDS011;8646;49.716;9.266;2022-07-03T07:57:38;1.93;;;1.10;;
17059;SDS011;8646;49.716;9.266;2022-07-03T08:00:42;2.07;;;1.10;;
17059;SDS011;8646;49.716;9.266;2022-07-03T08:04:06;2.00;;;1.10;;
17059;SDS011;8646;49.716;9.266;2022-07-03T08:07:28;2.10;;;1.20;;
17059;SDS011;8646;49.716;9.266;2022-07-03T08:10:33;3.87;;;1.20;;
17059;SDS011;8646;49.716;9.266;2022-07-03T08:13:38;1.87;;;1.00;;
17059;SDS011;8646;49.716;9.266;2022-07-03T08:16:41;1.53;;;1.10;;
17059;SDS011;8646;49.716;9.266;2022-07-03T08:19:45;2.03;;;1.30;;
17059;SDS011;8646;49.716;9.266;2022-07-03T08:22:49;2.87;;;1.20;;
17059;SDS011;8646;49.716;9.266;2022-07-03T08:25:53;2.37;;;1.10;;
17059;SDS011;8646;49.716;9.266;2022-07-03T08:28:56;1.53;;;0.93;;
17059;SDS011;8646;49.716;9.266;2022-07-03T08:31:59;1.27;;;1.00;;
17059;SDS011;8646;49.716;9.266;2022-07-03T08:35:02;8.50;;;1.33;;
17059;SDS011;8646;49.716;9.266;2022-07-03T08:38:10;9.67;;;1.40;;
17059;SDS011;8646;49.716;9.266;2022-07-03T08:41:13;2.70;;;1.27;;
17059;SDS011;8646;49.716;9.266;2022-07-03T08:44:17;2.37;;;1.00;;
17059;SDS011;8646;49.716;9.266;2022-07-03T08:47:21;2.53;;;1.00;;
17059;SDS011;8646;49.716;9.266;2022-07-03T08:50:26;4.57;;;1.10;;
17059;SDS011;8646;49.716;9.266;2022-07-03T08:53:30;2.53;;;1.00;;
17059;SDS011;8646;49.716;9.266;2022-07-03T08:56:34;1.47;;;0.90;;
17059;SDS011;8646;49.716;9.266;2022-07-03T08:59:38;2.60;;;1.00;;
17059;SDS011;8646;49.716;9.266;2022-07-03T09:02:42;0.73;;;0.70;;
17059;SDS011;8646;49.716;9.266;2022-07-03T09:05:47;1.67;;;0.83;;
17059;SDS011;8646;49.716;9.266;2022-07-03T09:08:52;1.00;;;0.70;;
17059;SDS011;8646;49.716;9.266;2022-07-03T09:11:57;6.30;;;0.80;;
17059;SDS011;8646;49.716;9.266;2022-07-03T09:15:02;0.63;;;0.50;;
17059;SDS011;8646;49.716;9.266;2022-07-03T09:18:08;5.37;;;0.50;;
17059;SDS011;8646;49.716;9.266;2022-07-03T09:21:11;1.90;;;0.50;;
17059;SDS011;8646;49.716;9.266;2022-07-03T09:24:15;1.37;;;0.60;;
17059;SDS011;8646;49.716;9.266;2022-07-03T09:27:19;0.90;;;0.60;;
17059;SDS011;8646;49.716;9.266;2022-07-03T09:30:23;1.43;;;0.60;;
17059;SDS011;8646;49.716;9.266;2022-07-03T09:33:28;3.03;;;0.70;;
17059;SDS011;8646;49.716;9.266;2022-07-03T09:36:41;3.30;;;0.77;;
17059;SDS011;8646;49.716;9.266;2022-07-03T09:39:46;0.80;;;0.70;;
17059;SDS011;8646;49.716;9.266;2022-07-03T09:43:02;7.37;;;0.80;;
17059;SDS011;8646;49.716;9.266;2022-07-03T09:46:07;1.80;;;0.83;;
17059;SDS011;8646;49.716;9.266;2022-07-03T09:49:09;1.03;;;0.77;;
17059;SDS011;8646;49.716;9.266;2022-07-03T09:52:25;3.93;;;0.90;;
17059;SDS011;8646;49.716;9.266;2022-07-03T09:55:33;1.23;;;0.90;;
17059;SDS011;8646;49.716;9.266;2022-07-03T09:58:38;1.50;;;1.13;;
17059;SDS011;8646;49.716;9.266;2022-07-03T10:01:41;10.80;;;1.00;;
17059;SDS011;8646;49.716;9.266;2022-07-03T10:04:45;9.55;;;2.00;;
17059;SDS011;8646;49.716;9.266;2022-07-03T10:07:51;0.93;;;0.60;;
17059;SDS011;8646;49.716;9.266;2022-07-03T10:10:58;2.47;;;0.60;;
17059;SDS011;8646;49.716;9.266;2022-07-03T10:14:02;2.10;;;0.90;;
17059;SDS011;8646;49.716;9.266;2022-07-03T10:17:05;2.35;;;0.85;;
17059;SDS011;8646;49.716;9.266;2022-07-03T10:20:19;1.40;;;0.75;;
17059;SDS011;8646;49.716;9.266;2022-07-03T10:23:30;0.90;;;0.70;;
17059;SDS011;8646;49.716;9.266;2022-07-03T10:26:36;1.10;;;0.70;;
17059;SDS011;8646;49.716;9.266;2022-07-03T10:29:38;2.15;;;0.70;;
17059;SDS011;8646;49.716;9.266;2022-07-03T10:32:42;10.20;;;1.63;;
17059;SDS011;8646;49.716;9.266;2022-07-03T10:35:48;2.67;;;0.60;;
17059;SDS011;8646;49.716;9.266;2022-07-03T10:38:51;1.15;;;0.70;;
17059;SDS011;8646;49.716;9.266;2022-07-03T10:42:00;0.98;;;0.85;;
17059;SDS011;8646;49.716;9.266;2022-07-03T10:45:24;0.60;;;0.60;;
17059;SDS011;8646;49.716;9.266;2022-07-03T10:48:36;1.20;;;0.60;;
17059;SDS011;8646;49.716;9.266;2022-07-03T10:51:54;1.63;;;0.88;;
17059;SDS011;8646;49.716;9.266;2022-07-03T10:54:58;2.35;;;0.88;;
17059;SDS011;8646;49.716;9.266;2022-07-03T10:58:08;0.98;;;0.73;;
17059;SDS011;8646;49.716;9.266;2022-07-03T11:01:11;1.63;;;0.70;;
17059;SDS011;8646;49.716;9.266;2022-07-03T11:04:32;1.63;;;0.70;;
17059;SDS011;8646;49.716;9.266;2022-07-03T11:08:13;3.78;;;0.88;;
17059;SDS011;8646;49.716;9.266;2022-07-03T11:15:04;1.08;;;0.70;;
17059;SDS011;8646;49.716;9.266;2022-07-03T11:18:28;7.82;;;0.80;;
17059;SDS011;8646;49.716;9.266;2022-07-03T11:21:33;0.93;;;0.60;;
17059;SDS011;8646;49.716;9.266;2022-07-03T11:24:44;1.45;;;0.85;;
17059;SDS011;8646;49.716;9.266;2022-07-03T11:27:47;2.05;;;0.70;;
17059;SDS011;8646;49.716;9.266;2022-07-03T11:34:21;1.67;;;0.90;;
17059;SDS011;8646;49.716;9.266;2022-07-03T11:37:23;1.20;;;0.80;;
17059;SDS011;8646;49.716;9.266;2022-07-03T11:40:26;3.60;;;0.90;;
17059;SDS011;8646;49.716;9.266;2022-07-03T11:43:38;4.57;;;0.80;;
17059;SDS011;8646;49.716;9.266;2022-07-03T11:46:51;1.75;;;0.90;;
17059;SDS011;8646;49.716;9.266;2022-07-03T11:50:02;2.75;;;0.70;;
17059;SDS011;8646;49.716;9.266;2022-07-03T11:53:16;1.52;;;0.80;;
17059;SDS011;8646;49.716;9.266;2022-07-03T11:56:24;3.53;;;1.10;;
17059;SDS011;8646;49.716;9.266;2022-07-03T11:59:29;2.03;;;0.90;;
17059;SDS011;8646;49.716;9.266;2022-07-03T12:02:38;3.42;;;0.80;;
17059;SDS011;8646;49.716;9.266;2022-07-03T12:05:51;2.25;;;0.80;;
17059;SDS011;8646;49.716;9.266;2022-07-03T12:08:55;0.80;;;0.70;;
17059;SDS011;8646;49.716;9.266;2022-07-03T12:11:59;1.48;;;0.75;;
17059;SDS011;8646;49.716;9.266;2022-07-03T12:15:03;3.45;;;0.70;;
17059;SDS011;8646;49.716;9.266;2022-07-03T12:18:08;2.17;;;0.93;;
17059;SDS011;8646;49.716;9.266;2022-07-03T12:21:11;1.45;;;0.80;;
17059;SDS011;8646;49.716;9.266;2022-07-03T12:24:14;1.17;;;0.70;;
17059;SDS011;8646;49.716;9.266;2022-07-03T12:27:17;1.35;;;0.85;;
17059;SDS011;8646;49.716;9.266;2022-07-03T12:30:21;0.90;;;0.90;;
17059;SDS011;8646;49.716;9.266;2022-07-03T12:33:29;2.38;;;0.80;;
17059;SDS011;8646;49.716;9.266;2022-07-03T12:36:36;3.92;;;0.80;;
17059;SDS011;8646;49.716;9.266;2022-07-03T12:39:40;5.03;;;0.80;;
17059;SDS011;8646;49.716;9.266;2022-07-03T12:42:43;1.45;;;0.80;;
17059;SDS011;8646;49.716;9.266;2022-07-03T12:45:47;1.60;;;0.90;;
17059;SDS011;8646;49.716;9.266;2022-07-03T12:48:52;4.60;;;0.93;;
17059;SDS011;8646;49.716;9.266;2022-07-03T12:51:57;2.33;;;0.90;;
17059;SDS011;8646;49.716;9.266;2022-07-03T12:55:00;2.45;;;0.90;;
17059;SDS011;8646;49.716;9.266;2022-07-03T12:58:10;1.45;;;0.70;;
17059;SDS011;8646;49.716;9.266;2022-07-03T13:01:32;1.98;;;0.70;;
17059;SDS011;8646;49.716;9.266;2022-07-03T13:04:40;2.92;;;1.00;;
17059;SDS011;8646;49.716;9.266;2022-07-03T13:07:44;4.10;;;0.90;;
17059;SDS011;8646;49.716;9.266;2022-07-03T13:10:54;1.00;;;0.90;;
17059;SDS011;8646;49.716;9.266;2022-07-03T13:14:02;2.17;;;0.73;;
17059;SDS011;8646;49.716;9.266;2022-07-03T13:17:08;0.95;;;0.70;;
17059;SDS011;8646;49.716;9.266;2022-07-03T13:20:12;3.75;;;0.90;;
17059;SDS011;8646;49.716;9.266;2022-07-03T13:23:15;2.13;;;0.90;;
17059;SDS011;8646;49.716;9.266;2022-07-03T13:26:18;3.33;;;0.88;;
17059;SDS011;8646;49.716;9.266;2022-07-03T13:29:21;0.90;;;0.80;;
17059;SDS011;8646;49.716;9.266;2022-07-03T13:32:26;2.60;;;0.80;;
17059;SDS011;8646;49.716;9.266;2022-07-03T13:35:32;1.58;;;0.98;;
17059;SDS011;8646;49.716;9.266;2022-07-03T13:38:36;1.73;;;0.77;;
17059;SDS011;8646;49.716;9.266;2022-07-03T13:41:39;4.28;;;1.15;;
17059;SDS011;8646;49.716;9.266;2022-07-03T13:44:42;2.45;;;1.00;;
17059;SDS011;8646;49.716;9.266;2022-07-03T13:47:46;0.77;;;0.73;;
17059;SDS011;8646;49.716;9.266;2022-07-03T13:50:50;0.88;;;0.80;;
17059;SDS011;8646;49.716;9.266;2022-07-03T13:53:53;2.55;;;0.85;;
17059;SDS011;8646;49.716;9.266;2022-07-03T13:56:56;2.60;;;0.85;;
17059;SDS011;8646;49.716;9.266;2022-07-03T13:59:58;2.20;;;0.90;;
17059;SDS011;8646;49.716;9.266;2022-07-03T14:03:02;2.90;;;0.88;;
17059;SDS011;8646;49.716;9.266;2022-07-03T14:06:10;2.50;;;0.95;;
17059;SDS011;8646;49.716;9.266;2022-07-03T14:09:16;0.90;;;0.80;;
17059;SDS011;8646;49.716;9.266;2022-07-03T14:12:21;1.95;;;0.70;;
17059;SDS011;8646;49.716;9.266;2022-07-03T14:15:29;5.00;;;0.90;;
17059;SDS011;8646;49.716;9.266;2022-07-03T14:18:32;0.93;;;0.70;;
17059;SDS011;8646;49.716;9.266;2022-07-03T14:21:36;1.40;;;0.70;;
17059;SDS011;8646;49.716;9.266;2022-07-03T14:24:39;4.20;;;0.75;;
17059;SDS011;8646;49.716;9.266;2022-07-03T14:27:42;1.30;;;0.90;;
17059;SDS011;8646;49.716;9.266;2022-07-03T14:31:03;4.25;;;0.85;;
17059;SDS011;8646;49.716;9.266;2022-07-03T14:34:23;3.80;;;1.05;;
17059;SDS011;8646;49.716;9.266;2022-07-03T14:37:27;1.45;;;0.85;;
17059;SDS011;8646;49.716;9.266;2022-07-03T14:40:30;2.35;;;0.90;;
17059;SDS011;8646;49.716;9.266;2022-07-03T14:43:33;2.75;;;0.77;;
17059;SDS011;8646;49.716;9.266;2022-07-03T14:46:36;2.67;;;0.70;;
17059;SDS011;8646;49.716;9.266;2022-07-03T14:49:39;1.67;;;0.80;;
17059;SDS011;8646;49.716;9.266;2022-07-03T14:52:44;1.77;;;0.82;;
17059;SDS011;8646;49.716;9.266;2022-07-03T14:55:47;0.80;;;0.80;;
17059;SDS011;8646;49.716;9.266;2022-07-03T14:58:51;1.08;;;0.68;;
17059;SDS011;8646;49.716;9.266;2022-07-03T15:01:56;1.95;;;0.60;;
17059;SDS011;8646;49.716;9.266;2022-07-03T15:05:02;5.45;;;0.80;;
17059;SDS011;8646;49.716;9.266;2022-07-03T15:08:14;0.93;;;0.65;;
17059;SDS011;8646;49.716;9.266;2022-07-03T15:11:30;1.67;;;0.70;;
17059;SDS011;8646;49.716;9.266;2022-07-03T15:14:54;2.50;;;0.77;;
17059;SDS011;8646;49.716;9.266;2022-07-03T15:17:59;1.75;;;1.00;;
17059;SDS011;8646;49.716;9.266;2022-07-03T15:21:04;4.65;;;0.80;;
17059;SDS011;8646;49.716;9.266;2022-07-03T15:24:09;0.82;;;0.70;;
17059;SDS011;8646;49.716;9.266;2022-07-03T15:27:13;2.85;;;0.63;;
17059;SDS011;8646;49.716;9.266;2022-07-03T15:30:21;1.70;;;0.80;;
17059;SDS011;8646;49.716;9.266;2022-07-03T15:33:26;4.40;;;0.70;;
17059;SDS011;8646;49.716;9.266;2022-07-03T15:36:29;3.65;;;0.60;;
17059;SDS011;8646;49.716;9.266;2022-07-03T15:39:47;1.42;;;0.75;;
17059;SDS011;8646;49.716;9.266;2022-07-03T15:42:56;1.75;;;0.70;;
17059;SDS011;8646;49.716;9.266;2022-07-03T15:46:23;0.90;;;0.80;;
17059;SDS011;8646;49.716;9.266;2022-07-03T15:49:35;1.33;;;0.60;;
17059;SDS011;8646;49.716;9.266;2022-07-03T15:52:44;1.38;;;0.63;;
17059;SDS011;8646;49.716;9.266;2022-07-03T15:55:53;2.47;;;0.90;;
17059;SDS011;8646;49.716;9.266;2022-07-03T15:58:59;12.32;;;1.42;;
17059;SDS011;8646;49.716;9.266;2022-07-03T16:02:04;2.63;;;0.70;;
17059;SDS011;8646;49.716;9.266;2022-07-03T16:05:17;3.22;;;0.80;;
17059;SDS011;8646;49.716;9.266;2022-07-03T16:08:21;1.13;;;0.68;;
17059;SDS011;8646;49.716;9.266;2022-07-03T16:11:27;1.90;;;0.80;;
17059;SDS011;8646;49.716;9.266;2022-07-03T16:14:31;4.60;;;0.65;;
17059;SDS011;8646;49.716;9.266;2022-07-03T16:17:36;5.75;;;0.90;;
17059;SDS011;8646;49.716;9.266;2022-07-03T16:20:39;3.53;;;0.80;;
17059;SDS011;8646;49.716;9.266;2022-07-03T16:23:43;0.65;;;0.50;;
17059;SDS011;8646;49.716;9.266;2022-07-03T16:26:48;3.22;;;0.70;;
17059;SDS011;8646;49.716;9.266;2022-07-03T16:29:52;0.82;;;0.70;;
17059;SDS011;8646;49.716;9.266;2022-07-03T16:32:57;1.75;;;0.82;;
17059;SDS011;8646;49.716;9.266;2022-07-03T16:36:02;1.13;;;0.70;;
17059;SDS011;8646;49.716;9.266;2022-07-03T16:39:11;1.40;;;0.70;;
17059;SDS011;8646;49.716;9.266;2022-07-03T16:42:22;2.67;;;0.75;;
17059;SDS011;8646;49.716;9.266;2022-07-03T16:45:26;3.15;;;0.80;;
17059;SDS011;8646;49.716;9.266;2022-07-03T16:48:32;2.92;;;0.75;;
17059;SDS011;8646;49.716;9.266;2022-07-03T16:51:39;3.25;;;0.70;;
17059;SDS011;8646;49.716;9.266;2022-07-03T16:54:44;0.80;;;0.60;;
17059;SDS011;8646;49.716;9.266;2022-07-03T16:57:49;2.00;;;0.82;;
17059;SDS011;8646;49.716;9.266;2022-07-03T17:00:53;3.10;;;0.80;;
17059;SDS011;8646;49.716;9.266;2022-07-03T17:04:03;1.75;;;0.75;;
17059;SDS011;8646;49.716;9.266;2022-07-03T17:07:11;1.42;;;0.80;;
17059;SDS011;8646;49.716;9.266;2022-07-03T17:10:15;1.45;;;0.80;;
17059;SDS011;8646;49.716;9.266;2022-07-03T17:13:20;1.65;;;0.80;;
17059;SDS011;8646;49.716;9.266;2022-07-03T17:16:23;2.85;;;0.70;;
17059;SDS011;8646;49.716;9.266;2022-07-03T17:19:30;0.95;;;0.60;;
17059;SDS011;8646;49.716;9.266;2022-07-03T17:22:40;2.67;;;0.80;;
17059;SDS011;8646;49.716;9.266;2022-07-03T17:25:45;3.42;;;0.63;;
17059;SDS011;8646;49.716;9.266;2022-07-03T17:28:59;1.73;;;0.80;;
17059;SDS011;8646;49.716;9.266;2022-07-03T17:32:15;0.65;;;0.50;;
17059;SDS011;8646;49.716;9.266;2022-07-03T17:35:28;1.58;;;0.70;;
17059;SDS011;8646;49.716;9.266;2022-07-03T17:38:34;3.17;;;0.70;;
17059;SDS011;8646;49.716;9.266;2022-07-03T17:41:45;1.38;;;0.77;;
17059;SDS011;8646;49.716;9.266;2022-07-03T17:44:50;4.10;;;0.70;;
17059;SDS011;8646;49.716;9.266;2022-07-03T17:47:56;4.63;;;0.80;;
17059;SDS011;8646;49.716;9.266;2022-07-03T17:51:09;3.65;;;0.82;;
17059;SDS011;8646;49.716;9.266;2022-07-03T17:54:14;3.60;;;1.10;;
17059;SDS011;8646;49.716;9.266;2022-07-03T17:57:17;3.75;;;1.00;;
17059;SDS011;8646;49.716;9.266;2022-07-03T18:00:44;3.42;;;0.68;;
17059;SDS011;8646;49.716;9.266;2022-07-03T18:03:48;4.00;;;0.80;;
17059;SDS011;8646;49.716;9.266;2022-07-03T18:06:51;2.88;;;0.70;;
17059;SDS011;8646;49.716;9.266;2022-07-03T18:09:56;1.58;;;0.88;;
17059;SDS011;8646;49.716;9.266;2022-07-03T18:13:07;8.27;;;1.58;;
17059;SDS011;8646;49.716;9.266;2022-07-03T18:16:15;2.90;;;0.80;;
17059;SDS011;8646;49.716;9.266;2022-07-03T18:19:18;4.78;;;0.95;;
17059;SDS011;8646;49.716;9.266;2022-07-03T18:22:27;3.15;;;0.90;;
17059;SDS011;8646;49.716;9.266;2022-07-03T18:25:30;2.40;;;1.05;;
17059;SDS011;8646;49.716;9.266;2022-07-03T18:28:36;4.75;;;0.90;;
17059;SDS011;8646;49.716;9.266;2022-07-03T18:31:42;3.50;;;1.00;;
17059;SDS011;8646;49.716;9.266;2022-07-03T18:34:47;4.20;;;0.90;;
17059;SDS011;8646;49.716;9.266;2022-07-03T18:37:51;3.97;;;1.00;;
17059;SDS011;8646;49.716;9.266;2022-07-03T18:40:55;1.30;;;0.80;;
17059;SDS011;8646;49.716;9.266;2022-07-03T18:43:59;2.17;;;0.90;;
17059;SDS011;8646;49.716;9.266;2022-07-03T18:47:04;2.30;;;0.80;;
17059;SDS011;8646;49.716;9.266;2022-07-03T18:50:08;2.37;;;0.80;;
17059;SDS011;8646;49.716;9.266;2022-07-03T18:53:12;2.00;;;1.00;;
17059;SDS011;8646;49.716;9.266;2022-07-03T18:56:26;2.80;;;0.70;;
17059;SDS011;8646;49.716;9.266;2022-07-03T18:59:40;2.30;;;0.70;;
17059;SDS011;8646;49.716;9.266;2022-07-03T19:02:52;4.57;;;0.90;;
17059;SDS011;8646;49.716;9.266;2022-07-03T19:06:04;2.97;;;0.80;;